Time;durP1;ratioP1;P1;durP2;ratioP2;P2;SDS_P1;SDS_P2;PMS_P1;PMS_P2;Temp;Humidity;BMP_temperature;BMP_pressure;BME280_temperature;BME280_humidity;BME280_pressure;Samples;Min_cycle;Max_cycle;Signal;HPM_P1;HPM_P2
2022/03/01 00:00:19;;;;;;;14.25;7.95;;;-1.20;61.60;;;-2.81;46.35;96406.88;6130431;23;20193;-84
2022/03/01 00:02:47;;;;;;;14.38;8.52;;;-1.20;61.70;;;-2.75;46.44;96418.59;6129853;23;20178;-83
2022/03/01 00:05:14;;;;;;;14.55;8.48;;;-1.20;61.70;;;-2.75;46.49;96414.31;6129735;23;20173;-82
2022/03/01 00:07:41;;;;;;;13.93;8.23;;;-1.20;61.70;;;-2.85;46.50;96402.81;6105611;23;20173;-83
2022/03/01 00:10:09;;;;;;;15.93;8.60;;;-1.20;61.70;;;-2.77;46.65;96415.28;6130309;23;20248;-84
2022/03/01 00:12:37;;;;;;;14.30;8.57;;;-1.20;61.80;;;-2.78;46.45;96414.44;6129480;23;20232;-82
2022/03/01 00:15:06;;;;;;;12.98;8.20;;;-1.30;61.70;;;-2.83;46.55;96402.72;6130050;23;20575;-82
2022/03/01 00:17:33;;;;;;;16.83;8.95;;;-1.30;61.80;;;-2.79;46.79;96409.41;6154649;23;20178;-83
2022/03/01 00:20:01;;;;;;;16.13;9.38;;;-1.30;61.80;;;-2.80;46.57;96411.13;6129953;23;20193;-83
2022/03/01 00:22:28;;;;;;;12.82;7.93;;;-1.30;61.80;;;-2.82;46.33;96405.25;6154551;23;20177;-84
2022/03/01 00:24:55;;;;;;;15.77;8.80;;;-1.30;61.70;;;-2.82;46.52;96410.38;6129375;23;20220;-83
2022/03/01 00:27:22;;;;;;;16.13;8.38;;;-1.40;61.70;;;-2.85;46.86;96405.38;6130279;23;20165;-84
2022/03/01 00:29:50;;;;;;;14.93;8.57;;;-1.30;61.80;;;-2.85;46.61;96402.81;6154021;23;20200;-83
2022/03/01 00:32:17;;;;;;;16.75;9.48;;;-1.30;61.90;;;-2.86;46.62;96392.63;6104580;23;20173;-83
2022/03/01 00:34:44;;;;;;;14.02;8.10;;;-1.40;61.90;;;-2.87;46.61;96393.50;6105678;23;20240;-83
2022/03/01 00:37:11;;;;;;;14.48;8.30;;;-1.40;61.90;;;-2.93;46.88;96387.78;6129936;23;20220;-83
2022/03/01 00:39:39;;;;;;;16.00;9.20;;;-1.40;61.80;;;-2.91;46.77;96388.50;6129592;23;20190;-83
2022/03/01 00:42:06;;;;;;;15.95;8.38;;;-1.40;61.90;;;-2.98;46.87;96376.03;6105699;23;20225;-83
2022/03/01 00:44:33;;;;;;;15.13;8.77;;;-1.40;62.00;;;-2.98;47.02;96379.47;6153973;23;20292;-83
2022/03/01 00:47:00;;;;;;;13.65;8.07;;;-1.40;62.10;;;-3.08;46.74;96360.25;6129659;23;20193;-84
2022/03/01 00:49:28;;;;;;;13.65;8.43;;;-1.40;62.00;;;-2.95;46.79;96379.31;6153419;23;20231;-84
2022/03/01 00:51:55;;;;;;;13.80;8.20;;;-1.40;62.00;;;-3.03;46.82;96370.31;6153811;23;20181;-84
2022/03/01 00:54:22;;;;;;;15.50;8.30;;;-1.50;61.90;;;-2.98;46.70;96378.63;6128970;23;20640;-83
2022/03/01 00:56:51;;;;;;;12.63;7.65;;;-1.50;61.90;;;-3.05;46.76;96372.94;6129361;23;20224;-83
2022/03/01 00:59:19;;;;;;;14.60;8.30;;;-1.50;61.90;;;-3.03;46.87;96375.44;6105778;23;20248;-83
2022/03/01 01:01:46;;;;;;;15.27;9.23;;;-1.50;61.90;;;-3.04;46.94;96376.34;6153803;23;20584;-84
2022/03/01 01:04:14;;;;;;;17.10;8.90;;;-1.50;62.00;;;-3.03;47.03;96372.88;6152900;23;20193;-83
2022/03/01 01:06:41;;;;;;;15.02;8.05;;;-1.50;62.10;;;-3.07;47.14;96365.31;6152486;23;20173;-84
2022/03/01 01:09:12;;;;;;;15.30;8.63;;;-1.50;62.10;;;-3.12;47.06;96356.16;6155558;23;20190;-83
2022/03/01 01:11:43;;;;;;;16.63;7.97;;;-1.50;62.10;;;-3.10;47.42;96362.03;6129965;23;20264;-83
2022/03/01 01:14:11;;;;;;;11.88;7.57;;;-1.60;62.20;;;-3.07;47.25;96360.16;6128959;23;20268;-83
2022/03/01 01:16:39;;;;;;;12.90;7.90;;;-1.60;62.10;;;-3.08;47.16;96357.69;6153583;23;20187;-82
2022/03/01 01:19:06;;;;;;;13.32;7.95;;;-1.60;62.10;;;-3.08;47.13;96360.25;6155419;23;20264;-84
2022/03/01 01:24:19;;;;;;;14.38;8.65;;;-1.60;62.20;;;-3.14;47.26;96350.28;6129454;23;20248;-82
2022/03/01 01:26:46;;;;;;;12.65;7.85;;;-1.60;62.20;;;-3.20;47.11;96337.72;6129266;23;20276;-82
2022/03/01 01:29:14;;;;;;;13.02;8.55;;;-1.60;62.20;;;-3.17;47.08;96346.13;6155613;23;20217;-83
2022/03/01 01:31:41;;;;;;;13.27;8.02;;;-1.60;62.20;;;-3.20;47.29;96348.00;6154810;23;20170;-83
2022/03/01 01:34:08;;;;;;;11.65;7.32;;;-1.60;62.20;;;-3.19;47.32;96347.91;6129026;23;20212;-84
2022/03/01 01:36:36;;;;;;;13.60;7.55;;;-1.60;62.20;;;-3.23;47.30;96349.78;6155992;23;20166;-84
2022/03/01 01:39:03;;;;;;;11.50;7.93;;;-1.70;62.20;;;-3.28;46.97;96349.19;6153647;23;20195;-83
2022/03/01 01:41:30;;;;;;;9.25;6.35;;;-1.70;62.20;;;-3.31;47.11;96353.63;6080736;23;20710;-84
2022/03/01 01:44:05;;;;;;;13.63;6.78;;;-1.80;62.10;;;-3.41;47.17;96343.75;6129210;23;20205;-83
2022/03/01 01:46:32;;;;;;;12.98;7.65;;;-1.80;62.40;;;-3.47;46.94;96344.06;6130077;23;20491;-82
2022/03/01 01:49:00;;;;;;;12.23;6.50;;;-1.80;62.00;;;-3.55;47.15;96333.34;6129693;23;20197;-87
2022/03/01 01:51:28;;;;;;;14.13;7.03;;;-1.80;62.10;;;-3.60;47.11;96337.81;6129012;23;20173;-84
2022/03/01 01:53:55;;;;;;;11.88;7.05;;;-1.90;62.10;;;-3.64;47.08;96346.56;6153248;23;20190;-84
2022/03/01 01:56:22;;;;;;;10.38;6.43;;;-1.90;62.10;;;-3.73;47.05;96340.94;6153751;23;20180;-82
2022/03/01 01:58:51;;;;;;;11.82;6.85;;;-2.00;62.10;;;-3.78;47.10;96331.81;6154153;23;20201;-83
2022/03/01 02:01:18;;;;;;;12.18;7.03;;;-2.00;62.10;;;-3.90;47.12;96320.34;6104029;23;20276;-83
2022/03/01 02:03:45;;;;;;;10.55;6.57;;;-2.10;62.10;;;-3.89;47.23;96329.72;6105153;23;20189;-83
2022/03/01 02:06:12;;;;;;;12.82;7.10;;;-2.10;62.20;;;-3.92;46.89;96319.59;6154982;23;20177;-83
2022/03/01 02:08:40;;;;;;;14.70;7.00;;;-2.20;62.20;;;-3.97;47.18;96319.78;6131508;23;20279;-84
2022/03/01 02:11:08;;;;;;;12.88;7.00;;;-2.30;62.20;;;-3.96;47.15;96323.19;6154763;23;20200;-83
2022/03/01 02:13:35;;;;;;;10.80;6.57;;;-2.30;62.30;;;-4.04;47.27;96308.97;6131424;23;20272;-83
2022/03/01 02:16:03;;;;;;;11.70;6.70;;;-2.30;62.30;;;-4.04;47.13;96310.69;6131441;23;20180;-83
2022/03/01 02:18:30;;;;;;;11.10;6.85;;;-2.40;62.40;;;-4.08;47.40;96310.00;6131279;23;20256;-84
2022/03/01 02:20:57;;;;;;;11.38;6.45;;;-2.40;62.40;;;-4.11;47.29;96307.59;6106656;23;20200;-83
2022/03/01 02:23:24;;;;;;;11.00;6.63;;;-2.40;62.40;;;-4.16;47.17;96299.28;6131006;23;20251;-83
2022/03/01 02:25:51;;;;;;;10.55;7.03;;;-2.40;62.40;;;-4.22;47.26;96290.13;6131318;23;20211;-83
2022/03/01 02:28:18;;;;;;;11.35;6.85;;;-2.50;62.30;;;-4.22;47.51;96291.88;6130391;23;20276;-83
2022/03/01 02:30:45;;;;;;;11.15;6.65;;;-2.50;62.40;;;-4.27;47.21;96304.00;6130604;23;20224;-83
2022/03/01 02:33:13;;;;;;;15.68;7.80;;;-2.60;62.30;;;-4.33;47.19;96302.56;6130814;23;20197;-83
2022/03/01 02:35:40;;;;;;;10.38;6.40;;;-2.60;62.40;;;-4.34;47.49;96300.91;6130682;23;20180;-84
2022/03/01 02:38:07;;;;;;;12.68;6.97;;;-2.60;62.50;;;-4.45;47.30;96301.34;6130972;23;20268;-83
2022/03/01 02:40:34;;;;;;;13.90;6.90;;;-2.70;62.50;;;-4.47;47.16;96308.25;6130834;23;20184;-83
2022/03/01 02:43:02;;;;;;;10.77;6.82;;;-2.70;62.50;;;-4.46;47.31;96309.09;6155375;23;20198;-83
2022/03/01 02:45:29;;;;;;;12.98;7.15;;;-2.70;62.50;;;-4.51;47.25;96305.00;6155844;23;20221;-83
2022/03/01 02:47:56;;;;;;;12.82;7.07;;;-2.80;62.40;;;-4.55;47.25;96298.34;6130711;23;20177;-83
2022/03/01 02:50:24;;;;;;;12.98;6.72;;;-2.80;62.50;;;-4.57;47.59;96305.25;6155412;23;20201;-82
2022/03/01 02:52:51;;;;;;;12.02;7.57;;;-2.80;62.50;;;-4.59;47.27;96304.50;6154890;23;20558;-83
2022/03/01 02:55:18;;;;;;;12.82;6.65;;;-2.90;62.40;;;-4.61;47.48;96308.00;6130878;23;20228;-82
2022/03/01 02:57:45;;;;;;;14.57;7.43;;;-2.90;62.50;;;-4.63;47.50;96310.63;6106202;23;20224;-83
2022/03/01 03:00:13;;;;;;;13.25;6.93;;;-2.90;62.60;;;-4.63;47.68;96304.69;6154280;23;20178;-83
2022/03/01 03:02:42;;;;;;;13.68;7.78;;;-3.00;62.60;;;-4.68;47.75;96310.00;6130892;23;20205;-83
2022/03/01 03:05:11;;;;;;;13.68;7.35;;;-3.00;62.70;;;-4.64;47.85;96319.22;6082559;23;20200;-83
2022/03/01 03:07:41;;;;;;;10.40;7.00;;;-3.00;62.80;;;-4.68;47.73;96317.69;6130696;23;20185;-83
2022/03/01 03:10:08;;;;;;;12.45;7.15;;;-3.00;62.80;;;-4.66;47.20;96324.41;6130403;23;20209;-84
2022/03/01 03:12:36;;;;;;;13.48;7.13;;;-3.00;62.90;;;-4.67;48.02;96332.16;6155873;23;20189;-84
2022/03/01 03:15:05;;;;;;;14.43;7.60;;;-3.00;63.80;;;-4.70;48.07;96328.00;6130605;23;20197;-83
2022/03/01 03:17:32;;;;;;;13.55;7.57;;;-3.00;63.10;;;-4.64;48.30;96328.63;6106180;23;20185;-84
2022/03/01 03:19:59;;;;;;;10.40;6.93;;;-3.00;63.20;;;-4.63;47.72;96328.56;6154517;23;20199;-83
2022/03/01 03:22:26;;;;;;;11.05;7.30;;;-3.00;63.20;;;-4.66;48.37;96324.41;6154935;23;20232;-83
2022/03/01 03:24:53;;;;;;;13.73;7.28;;;-3.00;63.20;;;-4.61;48.23;96331.91;6155094;23;20193;-83
2022/03/01 03:27:23;;;;;;;12.27;7.32;;;-3.00;63.30;;;-4.59;48.14;96329.25;6154926;23;20170;-83
2022/03/01 03:29:50;;;;;;;12.70;7.35;;;-3.10;63.30;;;-4.60;48.34;96325.88;6129886;23;20247;-84
2022/03/01 03:32:18;;;;;;;14.68;8.25;;;-3.00;63.40;;;-4.59;48.34;96319.03;6130029;23;20181;-83
2022/03/01 03:34:45;;;;;;;13.18;7.78;;;-3.00;63.30;;;-4.56;48.29;96321.47;6105880;23;20196;-83
2022/03/01 03:37:13;;;;;;;12.23;7.57;;;-3.00;63.30;;;-4.57;48.28;96314.69;6130528;23;20173;-83
2022/03/01 03:39:40;;;;;;;14.25;7.65;;;-3.00;63.40;;;-4.59;47.74;96308.78;6154762;23;20212;-83
2022/03/01 03:42:07;;;;;;;13.07;8.05;;;-3.00;63.30;;;-4.57;48.57;96309.56;6154625;23;20205;-83
2022/03/01 03:44:34;;;;;;;16.23;8.55;;;-3.00;63.40;;;-4.59;48.78;96306.22;6130378;23;20276;-83
2022/03/01 03:47:02;;;;;;;15.15;9.02;;;-3.00;63.40;;;-4.56;48.71;96308.66;6129674;23;20169;-82
2022/03/01 03:49:29;;;;;;;13.45;8.23;;;-3.00;63.50;;;-4.55;48.84;96306.03;6105788;23;20284;-83
2022/03/01 03:51:56;;;;;;;14.23;8.32;;;-3.00;63.50;;;-4.53;48.84;96305.97;6154853;23;20601;-82
2022/03/01 03:54:24;;;;;;;11.98;7.40;;;-3.00;63.60;;;-4.55;48.68;96300.91;6154906;23;20225;-83
2022/03/01 03:56:51;;;;;;;13.55;7.97;;;-3.00;63.60;;;-4.56;48.57;96301.81;6129896;23;20177;-83
2022/03/01 03:59:18;;;;;;;14.35;8.10;;;-3.00;63.60;;;-4.64;48.67;96296.16;6154989;23;20204;-83
2022/03/01 04:01:45;;;;;;;16.95;8.27;;;-3.00;63.60;;;-4.52;48.85;96307.63;6130262;23;20190;-83
2022/03/01 04:04:13;;;;;;;14.45;8.35;;;-3.00;63.70;;;-4.51;48.88;96316.97;6154461;23;20264;-83
2022/03/01 04:06:40;;;;;;;12.85;7.35;;;-3.00;63.70;;;-4.52;48.42;96313.59;6129798;23;20173;-83
2022/03/01 04:09:07;;;;;;;13.07;7.38;;;-3.00;63.70;;;-4.50;48.89;96310.97;6154455;23;20189;-83
2022/03/01 04:11:35;;;;;;;13.20;7.75;;;-3.00;63.80;;;-4.57;48.77;96302.69;6105376;23;20620;-82
2022/03/01 04:14:03;;;;;;;14.30;7.72;;;-3.00;63.60;;;-4.56;48.79;96303.53;6130093;23;20197;-82
2022/03/01 04:16:31;;;;;;;12.60;7.18;;;-3.00;63.60;;;-4.52;48.60;96310.19;6130912;23;20248;-84
2022/03/01 04:19:02;;;;;;;14.68;7.90;;;-3.00;63.70;;;-4.56;48.65;96308.66;6154936;23;20244;-83
2022/03/01 04:21:30;;;;;;;14.93;8.27;;;-3.00;63.70;;;-4.55;48.86;96306.03;6130058;23;20197;-84
2022/03/01 04:23:57;;;;;;;15.23;7.95;;;-3.00;63.80;;;-4.56;48.72;96306.94;6153963;23;20517;-83
2022/03/01 04:26:24;;;;;;;15.45;9.00;;;-3.00;63.70;;;-4.56;49.02;96309.47;6154493;23;20276;-84
2022/03/01 04:28:51;;;;;;;16.20;9.02;;;-3.00;63.80;;;-4.56;49.02;96311.22;6129369;23;20236;-83
2022/03/01 04:31:18;;;;;;;14.00;9.13;;;-3.00;63.90;;;-4.58;49.26;96311.28;6130130;23;20260;-83
2022/03/01 04:33:45;;;;;;;13.60;8.23;;;-3.00;63.90;;;-4.54;49.12;96315.38;6130462;23;20643;-83
2022/03/01 04:36:13;;;;;;;13.25;8.15;;;-3.00;63.90;;;-4.52;49.11;96312.75;6130258;23;20184;-83
2022/03/01 04:38:40;;;;;;;14.68;8.50;;;-3.00;63.90;;;-4.52;49.08;96318.72;6105733;23;20715;-83
2022/03/01 04:41:09;;;;;;;14.07;8.07;;;-3.00;63.90;;;-4.54;49.07;96312.81;6128984;23;20169;-83
2022/03/01 04:43:37;;;;;;;15.48;7.97;;;-3.00;64.00;;;-4.51;49.22;96305.00;6130138;23;20682;-83
2022/03/01 04:46:04;;;;;;;14.43;8.43;;;-3.00;64.00;;;-4.49;49.07;96310.06;6129382;23;20216;-82
2022/03/01 04:48:32;;;;;;;13.80;8.23;;;-3.00;64.00;;;-4.57;48.82;96296.75;6129223;23;20656;-82
2022/03/01 04:50:59;;;;;;;12.90;8.45;;;-3.00;64.00;;;-4.51;49.12;96309.31;6129436;23;20265;-83
2022/03/01 04:53:26;;;;;;;17.48;8.52;;;-3.00;64.00;;;-4.51;49.20;96319.53;6129598;23;20200;-83
2022/03/01 04:55:53;;;;;;;14.15;8.38;;;-3.00;64.00;;;-4.59;49.29;96298.53;6129376;23;20177;-83
2022/03/01 04:58:21;;;;;;;14.20;8.20;;;-3.00;64.00;;;-4.54;49.44;96315.38;6153403;23;20201;-84
2022/03/01 05:00:48;;;;;;;17.17;8.88;;;-3.00;64.10;;;-4.51;49.31;96316.97;6105077;23;20277;-83
2022/03/01 05:03:16;;;;;;;17.05;9.20;;;-3.00;64.30;;;-4.51;49.26;96314.41;6129246;23;20545;-83
2022/03/01 05:05:43;;;;;;;14.10;8.05;;;-3.00;64.20;;;-4.51;49.57;96317.81;6129133;23;20516;-83
2022/03/01 05:08:10;;;;;;;13.35;7.75;;;-3.00;64.20;;;-4.56;49.28;96309.47;6153722;23;20205;-83
2022/03/01 05:10:37;;;;;;;15.68;8.90;;;-3.00;64.20;;;-4.52;49.44;96316.16;6129554;23;20181;-83
2022/03/01 05:13:09;;;;;;;15.98;8.75;;;-3.00;64.20;;;-4.53;49.46;96317.06;6129058;23;20551;-83
2022/03/01 05:15:36;;;;;;;16.48;8.52;;;-3.00;64.30;;;-4.53;49.36;96318.75;6104819;23;20178;-83
2022/03/01 05:18:03;;;;;;;12.85;7.95;;;-3.00;64.20;;;-4.50;49.52;96321.22;6105209;23;20233;-82
2022/03/01 05:20:30;;;;;;;17.30;8.65;;;-3.00;64.30;;;-4.49;49.63;96320.31;6154029;23;20173;-84
2022/03/01 05:22:57;;;;;;;14.38;8.30;;;-3.00;64.30;;;-4.52;49.69;96312.75;6129344;23;20241;-83
2022/03/01 05:25:24;;;;;;;16.20;8.57;;;-3.00;64.30;;;-4.47;49.59;96312.56;6129367;23;20268;-83
2022/03/01 05:27:53;;;;;;;12.20;8.10;;;-3.00;64.40;;;-4.51;49.78;96314.41;6154003;23;20165;-83
2022/03/01 05:30:22;;;;;;;13.55;7.70;;;-2.90;64.60;;;-4.46;49.76;96321.91;6128968;23;20640;-82
2022/03/01 05:32:53;;;;;;;15.45;7.75;;;-2.90;64.60;;;-4.44;49.78;96327.78;6080601;23;20201;-83
2022/03/01 05:35:24;;;;;;;11.70;7.93;;;-2.90;64.50;;;-4.44;49.92;96320.09;6129626;23;20161;-82
2022/03/01 05:37:52;;;;;;;12.45;7.65;;;-2.90;64.70;;;-4.42;49.93;96326.00;6105037;23;20178;-83
2022/03/01 05:40:23;;;;;;;12.15;7.18;;;-2.90;64.70;;;-4.48;49.97;96308.34;6081056;23;20557;-83
2022/03/01 05:42:50;;;;;;;11.70;7.70;;;-2.90;64.70;;;-4.40;49.80;96317.34;6128856;23;20686;-82
2022/03/01 05:45:18;;;;;;;11.75;6.85;;;-2.90;64.70;;;-4.40;49.64;96319.09;6129430;23;20240;-84
2022/03/01 05:47:48;;;;;;;12.82;7.38;;;-2.90;64.70;;;-4.38;49.84;96324.97;6104648;23;20174;-83
2022/03/01 05:50:16;;;;;;;14.05;7.40;;;-2.90;64.70;;;-4.39;49.65;96320.75;6129315;23;20170;-83
2022/03/01 05:52:48;;;;;;;12.23;7.32;;;-2.90;64.60;;;-4.38;49.88;96327.53;6106730;23;20198;-84
2022/03/01 05:55:15;;;;;;;11.77;7.35;;;-2.90;64.60;;;-4.35;49.84;96333.34;6154142;23;20197;-83
2022/03/01 05:57:43;;;;;;;11.18;6.55;;;-2.90;64.70;;;-4.31;49.83;96335.78;6152944;23;20185;-83
2022/03/01 06:00:15;;;;;;;12.25;6.95;;;-2.80;64.80;;;-4.30;49.96;96340.84;6128704;23;20560;-83
2022/03/01 06:02:45;;;;;;;11.52;7.10;;;-2.80;64.80;;;-4.26;50.12;96333.88;6129358;23;20237;-83
2022/03/01 06:05:15;;;;;;;13.05;6.97;;;-2.80;64.90;;;-4.26;49.83;96337.28;6105555;23;20173;-83
2022/03/01 06:07:43;;;;;;;13.25;7.38;;;-2.80;65.00;;;-4.18;49.78;96337.75;6153733;23;20197;-82
2022/03/01 06:10:11;;;;;;;10.60;6.90;;;-2.80;65.00;;;-4.13;49.77;96339.31;6104674;23;20683;-84
2022/03/01 06:12:41;;;;;;;11.80;7.20;;;-2.70;65.10;;;-4.08;49.69;96337.38;6129092;23;20208;-83
2022/03/01 06:15:09;;;;;;;12.70;7.18;;;-2.70;65.00;;;-4.05;49.69;96332.13;6154367;23;20169;-83
2022/03/01 06:17:37;;;;;;;11.57;7.20;;;-2.70;65.00;;;-4.00;49.91;96332.75;6129407;23;20199;-83
2022/03/01 06:20:09;;;;;;;11.95;6.95;;;-2.70;65.00;;;-4.04;49.87;96319.22;6153007;23;20180;-83
2022/03/01 06:22:38;;;;;;;12.90;6.95;;;-2.60;65.20;;;-3.88;49.53;96329.63;6129248;23;20216;-82
2022/03/01 06:25:10;;;;;;;12.10;7.40;;;-2.60;65.10;;;-3.81;49.76;96330.19;6129964;23;20597;-83
2022/03/01 06:27:39;;;;;;;12.73;7.38;;;-2.50;65.30;;;-3.71;49.80;96338.28;6153681;23;20243;-83
2022/03/01 06:30:08;;;;;;;14.32;8.18;;;-2.50;65.30;;;-3.64;50.05;96334.56;6129438;23;20173;-84
2022/03/01 06:32:36;;;;;;;14.30;8.13;;;-2.40;65.50;;;-3.55;49.82;96343.59;6153729;23;20260;-83
2022/03/01 06:35:05;;;;;;;12.57;7.88;;;-2.40;65.40;;;-3.53;49.89;96326.38;6129176;23;20197;-84
2022/03/01 06:37:42;;;;;;;12.02;7.18;;;-2.30;65.50;;;-3.39;49.71;96336.84;6106984;23;20181;-83
2022/03/01 06:40:12;;;;;;;13.18;7.40;;;-2.30;65.30;;;-3.36;49.92;96320.47;6104760;23;20176;-84
2022/03/01 06:42:40;;;;;;;13.00;7.97;;;-2.20;65.40;;;-3.23;49.85;96329.25;6081572;23;20209;-83
2022/03/01 06:45:08;;;;;;;12.07;7.55;;;-2.10;65.50;;;-3.15;49.77;96331.50;6128756;23;20173;-84
2022/03/01 06:47:35;;;;;;;14.70;8.43;;;-2.10;65.40;;;-3.11;49.83;96324.47;6105000;23;20208;-84
2022/03/01 06:50:04;;;;;;;12.70;7.25;;;-2.00;65.50;;;-2.98;49.82;96333.25;6105151;23;20620;-83
2022/03/01 06:52:32;;;;;;;15.23;8.32;;;-1.90;65.60;;;-2.93;49.38;96331.28;6131126;23;20170;-83
2022/03/01 06:54:59;;;;;;;14.07;8.50;;;-1.90;65.50;;;-2.79;49.79;96332.38;6130924;23;20202;-84
2022/03/01 06:57:26;;;;;;;14.38;8.73;;;-1.80;65.60;;;-2.71;49.68;96334.56;6106364;23;20184;-84
2022/03/01 06:59:54;;;;;;;14.90;8.57;;;-1.70;65.60;;;-2.65;49.73;96329.97;6106458;23;20197;-83
2022/03/01 07:02:25;;;;;;;13.80;9.15;;;-1.60;65.60;;;-2.53;49.92;96332.81;6106858;23;20201;-83
2022/03/01 07:04:54;;;;;;;16.48;9.57;;;-1.50;65.70;;;-2.47;49.76;96324.81;6155649;23;20193;-84
2022/03/01 07:07:23;;;;;;;15.73;9.73;;;-1.50;65.70;;;-2.38;49.57;96326.94;6156076;23;20500;-84
2022/03/01 07:09:50;;;;;;;14.65;9.48;;;-1.40;65.80;;;-2.27;49.68;96328.94;6129403;23;20264;-84
2022/03/01 07:12:22;;;;;;;16.60;9.35;;;-1.30;65.70;;;-2.23;49.72;96325.31;6154263;23;20232;-84
2022/03/01 07:14:49;;;;;;;14.27;9.65;;;-1.20;65.90;;;-2.19;49.71;96308.00;6154410;23;20216;-83
2022/03/01 07:17:16;;;;;;;13.43;9.43;;;-1.20;65.70;;;-1.98;49.62;96326.63;6155456;23;20228;-84
2022/03/01 07:19:45;;;;;;;18.90;9.18;;;-1.10;65.90;;;-1.88;49.75;96320.09;6131162;23;20189;-85
2022/03/01 07:22:12;;;;;;;13.23;9.10;;;-1.00;65.90;;;-1.80;49.79;96314.56;6082909;23;20204;-85
2022/03/01 07:24:39;;;;;;;16.15;9.18;;;-0.90;65.90;;;-1.68;49.72;96320.78;6130341;23;20266;-85
2022/03/01 07:27:06;;;;;;;19.88;10.70;;;-0.80;66.80;;;-1.58;49.69;96321.94;6130963;23;20183;-85
2022/03/01 07:29:36;;;;;;;15.98;9.77;;;-0.70;66.00;;;-1.61;49.96;96293.84;6107319;23;20256;-85
2022/03/01 07:32:05;;;;;;;15.73;9.77;;;-0.70;66.00;;;-1.55;49.90;96296.06;6131224;23;20208;-85
2022/03/01 07:34:33;;;;;;;19.80;11.10;;;-0.60;66.00;;;-1.29;49.79;96310.06;6154550;23;20284;-85
2022/03/01 07:37:00;;;;;;;15.95;10.52;;;-0.50;65.90;;;-1.21;49.78;96308.84;6107001;23;20236;-85
2022/03/01 07:39:27;;;;;;;16.95;10.68;;;-0.40;66.00;;;-1.09;49.96;96312.47;6155417;23;20300;-85
2022/03/01 07:41:55;;;;;;;17.13;11.02;;;-0.30;66.00;;;-1.01;49.86;96310.31;6130733;23;20182;-85
2022/03/01 07:44:22;;;;;;;19.85;9.88;;;-0.20;66.00;;;-0.94;49.86;96305.63;6131301;23;20259;-85
2022/03/01 07:46:50;;;;;;;34.95;18.98;;;-0.20;66.00;;;-0.81;49.77;96310.03;6155555;23;20259;-85
2022/03/01 07:49:17;;;;;;;34.38;25.00;;;-0.10;66.00;;;-0.72;49.66;96320.69;6131415;23;20213;-85
2022/03/01 07:51:44;;;;;;;28.65;21.00;;;0.00;66.00;;;-0.64;49.83;96308.22;6129905;23;20177;-84
2022/03/01 07:54:12;;;;;;;23.00;15.85;;;0.10;66.00;;;-0.60;49.70;96306.31;6129819;23;20268;-85
2022/03/01 07:56:42;;;;;;;22.08;14.65;;;0.20;66.00;;;-0.54;49.71;96304.22;6130567;23;20196;-85
2022/03/01 07:59:09;;;;;;;23.67;15.25;;;0.30;66.00;;;-0.41;49.76;96316.38;6131758;23;20199;-86
2022/03/01 08:01:36;;;;;;;21.17;13.45;;;0.30;66.00;;;-0.35;49.69;96308.28;6154688;23;20182;-85
2022/03/01 08:04:04;;;;;;;22.45;13.82;;;0.40;66.00;;;-0.37;49.96;96297.22;6130732;23;20228;-86
2022/03/01 08:06:31;;;;;;;23.67;13.20;;;0.50;66.10;;;-0.23;49.95;96304.13;6131017;23;20165;-86
2022/03/01 08:09:04;;;;;;;24.08;13.82;;;0.60;66.00;;;-0.19;49.55;96305.63;6131777;23;20202;-86
2022/03/01 08:11:32;;;;;;;22.27;13.57;;;0.60;66.00;;;-0.06;49.94;96310.88;6130523;23;20177;-86
2022/03/01 08:13:59;;;;;;;27.42;15.18;;;0.70;66.10;;;-0.09;50.03;96301.56;6130193;23;20205;-86
2022/03/01 08:16:27;;;;;;;23.20;14.45;;;0.70;66.00;;;0.06;49.94;96317.06;6105970;23;20208;-85
2022/03/01 08:19:42;;;;;;;27.40;14.38;;;0.80;66.10;;;0.13;49.83;96314.00;6155066;23;20197;-86
2022/03/01 08:22:09;;;;;;;22.10;12.48;;;0.90;66.50;;;0.22;49.73;96319.53;6154707;23;20177;-86
2022/03/01 08:24:37;;;;;;;21.55;13.30;;;0.90;66.00;;;0.13;49.70;96297.72;6130920;23;20276;-86
2022/03/01 08:27:04;;;;;;;23.48;12.95;;;1.00;66.00;;;0.34;49.79;96318.78;6155154;23;20181;-86
2022/03/01 08:29:31;;;;;;;21.77;14.05;;;1.10;66.10;;;0.43;49.64;96310.50;6130453;23;20688;-86
2022/03/01 08:31:58;;;;;;;21.25;13.57;;;1.10;66.10;;;0.52;49.82;96313.44;6154641;23;20189;-85
2022/03/01 08:34:27;;;;;;;24.13;13.70;;;1.20;66.10;;;0.60;49.57;96308.66;6130895;23;20198;-85
2022/03/01 08:36:54;;;;;;;25.38;14.98;;;1.30;66.20;;;0.67;49.58;96315.06;6155001;23;20173;-85
2022/03/01 08:39:21;;;;;;;22.05;13.32;;;1.30;66.10;;;0.75;49.57;96322.34;6129575;23;20192;-86
2022/03/01 08:41:50;;;;;;;22.10;12.93;;;1.40;66.20;;;0.77;49.50;96317.91;6130239;23;20169;-85
2022/03/01 08:44:17;;;;;;;20.05;12.95;;;1.50;66.10;;;0.86;49.35;96324.25;6130147;23;20213;-86
2022/03/01 08:46:49;;;;;;;20.42;12.88;;;1.50;66.10;;;0.92;49.45;96327.25;6132247;23;20168;-85
2022/03/01 08:49:17;;;;;;;21.45;12.85;;;1.60;66.00;;;0.99;49.86;96324.28;6129638;23;20197;-85
2022/03/01 08:51:44;;;;;;;21.33;12.98;;;1.60;66.00;;;1.04;49.44;96328.25;6129840;23;20240;-86
2022/03/01 08:54:11;;;;;;;21.38;12.52;;;1.70;66.00;;;1.10;49.46;96327.84;6130387;23;20216;-85
2022/03/01 08:56:39;;;;;;;23.83;12.98;;;1.80;66.00;;;1.18;49.32;96327.34;6129776;23;20543;-85
2022/03/01 08:59:06;;;;;;;19.77;12.20;;;1.80;66.00;;;1.23;49.41;96325.31;6129714;23;20275;-84
2022/03/01 09:01:33;;;;;;;19.17;12.80;;;1.80;66.00;;;1.30;49.28;96324.94;6154653;23;20256;-86
2022/03/01 09:04:01;;;;;;;21.95;12.90;;;1.90;66.00;;;1.36;49.32;96325.34;6154095;23;20216;-85
2022/03/01 09:06:29;;;;;;;21.38;12.98;;;2.00;66.00;;;1.42;49.46;96313.78;6129922;23;20174;-85
2022/03/01 09:08:56;;;;;;;22.38;13.35;;;2.00;66.00;;;1.46;49.34;96315.22;6130173;23;20276;-85
2022/03/01 09:11:23;;;;;;;23.92;13.35;;;2.10;66.00;;;1.50;49.29;96313.28;6154266;23;20180;-85
2022/03/01 09:13:50;;;;;;;22.77;13.18;;;2.10;65.90;;;1.49;49.20;96301.28;6129699;23;20244;-85
2022/03/01 09:16:17;;;;;;;24.25;12.65;;;2.20;65.90;;;1.43;49.22;96281.84;6130083;23;20547;-85
2022/03/01 09:18:45;;;;;;;20.17;12.18;;;2.20;65.80;;;1.64;49.41;96304.63;6129567;23;20197;-85
2022/03/01 09:21:12;;;;;;;20.17;12.77;;;2.20;65.70;;;1.70;49.22;96288.69;6130130;23;20217;-86
2022/03/01 09:23:41;;;;;;;22.23;12.98;;;2.30;65.80;;;1.74;49.04;96280.59;6106216;23;20213;-85
2022/03/01 09:26:09;;;;;;;23.83;13.23;;;2.30;65.70;;;1.66;48.98;96257.03;6154661;23;20170;-85
2022/03/01 09:28:36;;;;;;;24.20;14.60;;;2.40;65.90;;;1.90;48.94;96274.41;6130336;23;20247;-85
2022/03/01 09:31:03;;;;;;;22.40;13.38;;;2.50;65.90;;;2.00;49.31;96278.03;6153569;23;20177;-86
2022/03/01 09:33:31;;;;;;;21.10;13.55;;;2.50;65.90;;;2.07;49.04;96270.66;6129922;23;20252;-85
2022/03/01 09:35:58;;;;;;;23.25;13.88;;;2.60;65.80;;;2.14;49.16;96260.72;6105361;23;20185;-85
2022/03/01 09:38:26;;;;;;;20.00;13.30;;;2.60;65.80;;;2.22;48.90;96269.63;6130055;23;20209;-85
2022/03/01 09:40:54;;;;;;;22.95;13.77;;;2.70;65.80;;;2.29;49.15;96262.22;6129418;23;20181;-85
2022/03/01 09:43:21;;;;;;;19.58;11.73;;;2.80;65.90;;;2.29;48.93;96251.06;6105337;23;20209;-87
2022/03/01 09:45:48;;;;;;;20.17;11.73;;;2.90;65.80;;;2.42;49.00;96264.81;6105675;23;20491;-86
2022/03/01 09:48:15;;;;;;;18.45;11.95;;;2.90;65.60;;;2.37;48.83;96238.41;6129742;23;20193;-85
2022/03/01 09:50:45;;;;;;;15.07;10.45;;;3.00;65.70;;;2.54;48.50;96252.75;6128877;23;20695;-85
2022/03/01 09:53:13;;;;;;;19.27;11.68;;;3.00;65.40;;;2.65;48.41;96262.34;6154124;23;20185;-86
2022/03/01 09:55:40;;;;;;;19.08;12.02;;;3.10;65.50;;;2.69;48.42;96256.84;6129735;23;20181;-86
2022/03/01 09:58:08;;;;;;;15.45;10.70;;;3.20;65.50;;;2.78;48.46;96257.13;6129675;23;20197;-85
2022/03/01 10:00:36;;;;;;;19.50;12.88;;;3.20;65.20;;;2.70;48.15;96237.75;6129734;23;20216;-85
2022/03/01 10:03:06;;;;;;;16.95;12.10;;;3.40;65.30;;;2.87;48.10;96249.50;6153714;23;20526;-86
2022/03/01 10:05:38;;;;;;;18.83;12.07;;;3.40;65.10;;;2.92;48.16;96246.59;6154193;23;20169;-86
2022/03/01 10:08:08;;;;;;;16.80;11.65;;;3.40;65.00;;;2.93;48.17;96237.03;6129397;23;20197;-85
2022/03/01 10:10:42;;;;;;;18.70;11.90;;;3.50;65.00;;;2.97;47.69;96236.72;6152641;23;20256;-85
2022/03/01 10:13:13;;;;;;;17.55;11.35;;;3.50;65.00;;;3.01;48.28;96234.72;6129490;23;20656;-85
2022/03/01 10:15:41;;;;;;;17.88;11.57;;;3.60;65.00;;;3.06;48.12;96235.19;6154116;23;20170;-86
2022/03/01 10:18:15;;;;;;;18.58;11.38;;;3.60;64.90;;;3.00;47.68;96215.75;6129320;23;20244;-85